Terminal Aerodrome Forecast
Issued by NWS

Home | Current Version | Previous Version | Text Only | Print | Product List | Glossary Off
Versions: 1 2 3 4 5 6 7 8 9 10 11 12 13 14 15 16 17 18 19 20 21 22 23 24 25 26

000
FTUS41 KCLE 221700
TAFFDY
TAF
KFDY 221731Z 2218/2318 36010KT P6SM OVC018
     FM222000 36010KT P6SM OVC025
     FM222200 02010KT P6SM BKN035
     FM230000 02010KT P6SM SCT035
     FM230200 02004KT P6SM SKC=

USA.gov is the U.S. government's official web portal to all federal, state and local government web resources and services.